This is the latest recevied weather packets stored in our database for station/object KG5APU. If no packets are shown the sender has not sent any weather packets the latest 1 day(s).
| Time | Temp. | Humidity | Pressure | Rain* | Wind** | Luminosity | Snow |
|---|---|---|---|---|---|---|---|
| 1836274411 | 25.56° C | 78% | 1016.7 hPa | 0 mm | 0 m/s | 0 W/m² | - |
| 1836274264 | 25.56° C | 78% | 1017.2 hPa | 0 mm | 0.45 m/s, 139° | 0 W/m² | - |
| 1778040150 | 18.33° C | 79% | 1009.8 hPa | 0 mm | 0.45 m/s, 103° | 0 W/m² | - |
| 1778039550 | 18.89° C | 79% | 1009.7 hPa | 0 mm | 0 m/s | 0 W/m² | - |
| 1778038949 | 19.44° C | 79% | 1009.4 hPa | 0 mm | 0.89 m/s, 183° | 0 W/m² | - |
| 1778038350 | 20° C | 78% | 1009.3 hPa | 0 mm | 0.45 m/s, 166° | 0 W/m² | - |
| 1778037749 | 20° C | 78% | 1009.2 hPa | 0 mm | 1.79 m/s, 154° | 0 W/m² | - |
| 1778037149 | 20.56° C | 77% | 1008.9 hPa | 0 mm | 1.34 m/s, 119° | 0 W/m² | - |
| 1778036544 | 20.56° C | 77% | 1008.9 hPa | 0 mm | 1.34 m/s, 210° | 0 W/m² | - |
| 1778035943 | 21.11° C | 76% | 1008.7 hPa | 0 mm | 0.89 m/s, 50° | 0 W/m² | - |
| 1778035343 | 21.11° C | 76% | 1008.2 hPa | 0 mm | 0.45 m/s, 129° | 0 W/m² | - |
| 1778034742 | 21.67° C | 76% | 1007.8 hPa | 0 mm | 1.34 m/s, 334° | 0 W/m² | - |
| 1778034137 | 22.22° C | 76% | 1007.7 hPa | 0 mm | 0.89 m/s, 38° | 0 W/m² | - |
| 1778033537 | 22.78° C | 75% | 1007 hPa | 0 mm | 0.89 m/s, 26° | 0 W/m² | - |
| 1778032932 | 22.78° C | 74% | 1007.3 hPa | 0 mm | 0 m/s | 0 W/m² | - |
| 1778032333 | 23.33° C | 74% | 1007.1 hPa | 0 mm | 0.45 m/s, 236° | 0 W/m² | - |
| 1778031731 | 23.33° C | 74% | 1007 hPa | 0 mm | 2.24 m/s, 323° | 0 W/m² | - |
| 1778031126 | 23.33° C | 72% | 1006.9 hPa | 0 mm | 1.34 m/s, 190° | 0 W/m² | - |
| 1778030525 | 23.33° C | 72% | 1006.9 hPa | 0 mm | 0.89 m/s, 97° | 0 W/m² | - |
| 1778029924 | 23.89° C | 72% | 1006.5 hPa | 0 mm | 1.79 m/s, 306° | 1 W/m² | - |
| 1778029319 | 23.89° C | 72% | 1006.1 hPa | 0 mm | 0.89 m/s, 136° | 2 W/m² | - |
| 1778028719 | 24.44° C | 71% | 1006.4 hPa | 0 mm | 1.34 m/s, 24° | 3 W/m² | - |
| 1778028119 | 25° C | 71% | 1006.1 hPa | 0 mm | 0.89 m/s, 200° | 6 W/m² | - |
| 1778027517 | 25.56° C | 69% | 1006.1 hPa | 0 mm | 0.45 m/s, 119° | 18 W/m² | - |
| 1778026914 | 26.11° C | 68% | 1006.3 hPa | 0 mm | 2.68 m/s, 322° | 30 W/m² | - |
* Rain latest hour (hover to see other rain measurements)
** Current wind speed in m/s (hover to see current wind gust speed)